createdAt,value
2022-12-27T00:00:28.109Z,0.40
2022-12-27T00:01:28.043Z,0.30
2022-12-27T00:02:28.182Z,0.40
2022-12-27T00:03:28.048Z,0.30
2022-12-27T00:04:28.040Z,0.20
2022-12-27T00:05:28.072Z,0.20
2022-12-27T00:06:28.008Z,0.30
2022-12-27T00:07:27.982Z,0.30
2022-12-27T00:08:27.986Z,0.50
2022-12-27T00:09:27.958Z,0.30
2022-12-27T00:10:27.958Z,0.50
2022-12-27T00:11:27.969Z,1.10
2022-12-27T00:12:27.938Z,1.00
2022-12-27T00:13:27.923Z,8.10
2022-12-27T00:14:27.919Z,0.90
2022-12-27T00:15:27.898Z,0.90
2022-12-27T00:16:27.933Z,0.50
2022-12-27T00:17:27.885Z,0.40
2022-12-27T00:18:27.867Z,0.30
2022-12-27T00:19:27.877Z,0.60
2022-12-27T00:20:27.859Z,0.60
2022-12-27T00:21:27.843Z,1.30
2022-12-27T00:22:27.823Z,0.60
2022-12-27T00:23:27.860Z,2.30
2022-12-27T00:24:27.819Z,4.00
2022-12-27T00:25:27.789Z,1.00
2022-12-27T00:26:27.850Z,1.70
2022-12-27T00:27:27.769Z,1.10
2022-12-27T00:28:27.759Z,1.40
2022-12-27T00:29:27.784Z,1.30
2022-12-27T00:30:27.744Z,1.10
2022-12-27T00:31:27.807Z,1.10
2022-12-27T00:32:27.733Z,1.10
2022-12-27T00:33:27.716Z,1.20
2022-12-27T00:34:27.719Z,1.30
2022-12-27T00:35:27.702Z,0.90
2022-12-27T00:36:27.674Z,1.00
2022-12-27T00:37:27.707Z,0.80
2022-12-27T00:38:27.659Z,0.80
2022-12-27T00:39:27.639Z,0.90
2022-12-27T00:40:27.675Z,0.80
2022-12-27T00:41:27.631Z,0.80
2022-12-27T00:42:27.619Z,0.80
2022-12-27T00:43:27.644Z,0.90
2022-12-27T00:44:27.596Z,0.80
2022-12-27T00:45:27.644Z,1.00
2022-12-27T00:46:27.598Z,1.10
2022-12-27T00:47:27.584Z,1.60
2022-12-27T00:48:27.561Z,0.90
2022-12-27T00:49:27.580Z,1.10
2022-12-27T00:50:27.536Z,1.40
2022-12-27T00:51:27.579Z,1.00
2022-12-27T00:52:27.536Z,1.10
2022-12-27T00:53:27.491Z,1.20
2022-12-27T00:54:27.489Z,1.20
2022-12-27T00:55:27.494Z,1.10
2022-12-27T00:56:27.465Z,1.00
2022-12-27T00:57:27.454Z,1.00
2022-12-27T00:58:27.450Z,0.80
2022-12-27T00:59:27.433Z,0.80
2022-12-27T01:00:27.420Z,1.20
2022-12-27T01:01:27.638Z,1.00
2022-12-27T01:02:27.412Z,0.80
2022-12-27T01:03:27.436Z,0.70
2022-12-27T01:04:27.377Z,0.70
2022-12-27T01:05:27.371Z,0.70
2022-12-27T01:06:27.376Z,0.70
2022-12-27T01:07:27.388Z,0.80
2022-12-27T01:08:27.347Z,0.80
2022-12-27T01:09:27.327Z,0.60
2022-12-27T01:10:27.320Z,0.70
2022-12-27T01:11:27.310Z,0.60
2022-12-27T01:12:27.292Z,0.70
2022-12-27T01:13:27.314Z,0.60
2022-12-27T01:14:27.285Z,0.60
2022-12-27T01:15:27.258Z,0.80
2022-12-27T01:16:27.313Z,0.60
2022-12-27T01:17:27.245Z,0.70
2022-12-27T01:18:27.229Z,0.60
2022-12-27T01:19:27.255Z,0.70
2022-12-27T01:20:27.227Z,0.70
2022-12-27T01:21:27.196Z,1.10
2022-12-27T01:22:27.198Z,0.90
2022-12-27T01:23:27.192Z,0.80
2022-12-27T01:24:27.175Z,0.90
2022-12-27T01:25:27.307Z,0.60
2022-12-27T01:26:27.143Z,0.60
2022-12-27T01:27:27.146Z,0.50
2022-12-27T01:28:27.130Z,0.60
2022-12-27T01:29:27.106Z,0.60
2022-12-27T01:30:27.111Z,0.60
2022-12-27T01:31:27.227Z,0.70
2022-12-27T01:32:27.094Z,0.90
2022-12-27T01:33:27.069Z,0.80
2022-12-27T01:34:27.057Z,0.80
2022-12-27T01:35:27.043Z,0.90
2022-12-27T01:36:27.052Z,0.80
2022-12-27T01:37:27.077Z,0.70
2022-12-27T01:38:27.017Z,0.80
2022-12-27T01:39:27.023Z,1.00
2022-12-27T01:40:26.995Z,1.70
2022-12-27T01:41:26.980Z,1.80
2022-12-27T01:42:26.975Z,1.40
2022-12-27T01:43:27.025Z,1.50
2022-12-27T01:44:26.955Z,1.50
2022-12-27T01:45:27.008Z,1.40
2022-12-27T01:46:26.931Z,1.30
2022-12-27T01:47:26.917Z,1.40
2022-12-27T01:48:26.911Z,1.40
2022-12-27T01:49:26.914Z,1.40
2022-12-27T01:50:26.892Z,143.60
2022-12-27T01:51:26.933Z,19.20
2022-12-27T01:52:26.872Z,10.90
2022-12-27T01:53:26.853Z,8.60
2022-12-27T01:54:26.862Z,15.00
2022-12-27T01:55:26.851Z,4.70
2022-12-27T01:56:26.826Z,1.70
2022-12-27T01:57:26.851Z,1.40
2022-12-27T01:58:26.808Z,1.60
2022-12-27T01:59:26.793Z,1.50
2022-12-27T02:00:26.805Z,1.40
2022-12-27T02:01:26.928Z,1.00
2022-12-27T02:02:26.936Z,1.10
2022-12-27T02:03:26.786Z,2.40
2022-12-27T02:04:26.738Z,2.90
2022-12-27T02:05:26.730Z,9.00
2022-12-27T02:06:26.731Z,2.50
2022-12-27T02:07:26.703Z,0.90
2022-12-27T02:08:26.700Z,1.20
2022-12-27T02:09:26.747Z,1.20
2022-12-27T02:10:26.687Z,1.10
2022-12-27T02:11:26.686Z,1.10
2022-12-27T02:12:26.654Z,0.80
2022-12-27T02:13:26.644Z,1.00
2022-12-27T02:14:28.433Z,1.10
2022-12-27T02:15:26.695Z,0.90
2022-12-27T02:16:26.643Z,0.90
2022-12-27T02:17:26.623Z,1.00
2022-12-27T02:18:26.594Z,1.10
2022-12-27T02:19:26.575Z,1.50
2022-12-27T02:20:26.582Z,1.20
2022-12-27T02:21:26.592Z,1.40
2022-12-27T02:22:26.546Z,1.30
2022-12-27T02:23:26.543Z,1.30
2022-12-27T02:24:26.531Z,1.20
2022-12-27T02:25:26.523Z,1.10
2022-12-27T02:26:26.518Z,1.30
2022-12-27T02:27:26.544Z,1.20
2022-12-27T02:28:26.488Z,1.20
2022-12-27T02:29:26.471Z,1.30
2022-12-27T02:30:26.485Z,1.10
2022-12-27T02:31:26.450Z,1.20
2022-12-27T02:32:26.444Z,1.20
2022-12-27T02:33:26.485Z,1.30
2022-12-27T02:34:26.425Z,1.30
2022-12-27T02:35:26.411Z,1.20
2022-12-27T02:36:26.416Z,1.20
2022-12-27T02:37:26.388Z,1.50
2022-12-27T02:38:26.378Z,1.20
2022-12-27T02:39:26.402Z,1.30
2022-12-27T02:40:26.357Z,0.90
2022-12-27T02:41:26.356Z,0.90
2022-12-27T02:42:26.340Z,0.80
2022-12-27T02:43:26.355Z,1.00
2022-12-27T02:44:26.320Z,0.80
2022-12-27T02:45:26.349Z,0.80
2022-12-27T02:46:26.361Z,1.10
2022-12-27T02:47:26.279Z,1.00
2022-12-27T02:48:26.271Z,1.50
2022-12-27T02:49:26.271Z,1.00
2022-12-27T02:50:26.252Z,0.80
2022-12-27T02:51:26.286Z,1.10
2022-12-27T02:52:26.229Z,0.90
2022-12-27T02:53:26.219Z,0.70
2022-12-27T02:54:26.217Z,0.80
2022-12-27T02:55:26.201Z,0.80
2022-12-27T02:56:26.188Z,0.70
2022-12-27T02:57:26.205Z,0.80
2022-12-27T02:58:26.168Z,0.70
2022-12-27T02:59:26.178Z,0.80
2022-12-27T03:00:26.159Z,0.80
2022-12-27T03:01:26.207Z,1.20
2022-12-27T03:02:26.444Z,0.80
2022-12-27T03:03:26.146Z,0.70
2022-12-27T03:04:26.102Z,1.20
2022-12-27T03:05:26.088Z,0.90
2022-12-27T03:06:26.080Z,0.80
2022-12-27T03:07:26.070Z,0.70
2022-12-27T03:08:26.085Z,0.80
2022-12-27T03:09:26.079Z,0.70
2022-12-27T03:10:26.034Z,1.00
2022-12-27T03:11:26.027Z,1.10
2022-12-27T03:12:26.022Z,0.90
2022-12-27T03:13:26.005Z,0.80
2022-12-27T03:14:25.992Z,1.10
2022-12-27T03:15:30.483Z,0.80
2022-12-27T03:16:27.042Z,0.90
2022-12-27T03:17:25.973Z,0.80
2022-12-27T03:18:25.947Z,1.10
2022-12-27T03:19:25.951Z,1.10
2022-12-27T03:20:25.925Z,0.90
2022-12-27T03:21:25.953Z,1.00
2022-12-27T03:22:25.904Z,0.90
2022-12-27T03:23:25.896Z,0.90
2022-12-27T03:24:25.883Z,0.80
2022-12-27T03:25:25.890Z,1.20
2022-12-27T03:26:25.869Z,1.50
2022-12-27T03:27:25.892Z,1.10
2022-12-27T03:28:25.858Z,1.00
2022-12-27T03:29:25.841Z,1.10
2022-12-27T03:30:25.834Z,1.20
2022-12-27T03:31:25.836Z,1.10
2022-12-27T03:32:25.801Z,1.10
2022-12-27T03:33:25.829Z,0.80
2022-12-27T03:34:25.777Z,1.20
2022-12-27T03:35:25.770Z,1.30
2022-12-27T03:36:25.775Z,1.50
2022-12-27T03:37:25.748Z,1.60
2022-12-27T03:38:25.739Z,2.40
2022-12-27T03:39:25.767Z,2.10
2022-12-27T03:40:25.720Z,2.50
2022-12-27T03:41:25.717Z,2.60
2022-12-27T03:42:25.690Z,2.70
2022-12-27T03:43:25.684Z,2.40
2022-12-27T03:44:25.675Z,2.50
2022-12-27T03:45:25.726Z,2.40
2022-12-27T03:46:25.708Z,2.50
2022-12-27T03:47:25.679Z,2.10
2022-12-27T03:48:25.626Z,1.90
2022-12-27T03:49:25.620Z,2.10
2022-12-27T03:50:25.607Z,2.40
2022-12-27T03:51:25.679Z,2.40
2022-12-27T03:52:25.586Z,2.00
2022-12-27T03:53:25.577Z,1.70
2022-12-27T03:54:25.562Z,1.40
2022-12-27T03:55:31.497Z,1.60
2022-12-27T03:56:26.552Z,1.40
2022-12-27T03:57:25.575Z,1.60
2022-12-27T03:58:25.521Z,10.50
2022-12-27T03:59:25.515Z,12.40
2022-12-27T04:00:25.514Z,2.10
2022-12-27T04:01:25.627Z,13.30
2022-12-27T04:02:25.738Z,3.00
2022-12-27T04:03:25.612Z,13.80
2022-12-27T04:04:25.464Z,2.80
2022-12-27T04:05:25.448Z,2.70
2022-12-27T04:06:25.438Z,4.10
2022-12-27T04:07:25.439Z,244.70
2022-12-27T04:08:25.427Z,19.60
2022-12-27T04:09:25.460Z,2.00
2022-12-27T04:10:25.391Z,2.30
2022-12-27T04:11:25.385Z,2.00
2022-12-27T04:12:25.375Z,2.30
2022-12-27T04:13:25.381Z,2.30
2022-12-27T04:14:25.354Z,2.50
2022-12-27T04:15:25.415Z,1.90
2022-12-27T04:16:25.374Z,2.20
2022-12-27T04:17:25.326Z,2.30
2022-12-27T04:18:25.308Z,2.30
2022-12-27T04:19:25.317Z,2.30
2022-12-27T04:20:25.289Z,1.90
2022-12-27T04:21:25.332Z,1.80
2022-12-27T04:22:25.262Z,1.50
2022-12-27T04:23:25.259Z,1.60
2022-12-27T04:24:25.269Z,1.60
2022-12-27T04:25:25.238Z,1.80
2022-12-27T04:26:25.243Z,1.70
2022-12-27T04:27:25.253Z,2.20
2022-12-27T04:28:25.216Z,2.40
2022-12-27T04:29:25.197Z,1.90
2022-12-27T04:30:25.182Z,1.70
2022-12-27T04:31:25.234Z,1.50
2022-12-27T04:32:25.168Z,1.40
2022-12-27T04:33:25.205Z,1.50
2022-12-27T04:34:25.153Z,1.40
2022-12-27T04:35:25.154Z,1.30
2022-12-27T04:36:25.125Z,1.20
2022-12-27T04:37:25.113Z,1.30
2022-12-27T04:38:25.092Z,1.10
2022-12-27T04:39:25.122Z,1.10
2022-12-27T04:40:25.092Z,1.20
2022-12-27T04:41:25.064Z,0.90
2022-12-27T04:42:25.066Z,1.10
2022-12-27T04:43:25.056Z,0.80
2022-12-27T04:44:25.049Z,0.60
2022-12-27T04:45:25.088Z,0.70
2022-12-27T04:46:25.052Z,0.70
2022-12-27T04:47:25.003Z,0.70
2022-12-27T04:48:24.989Z,0.60
2022-12-27T04:49:24.980Z,0.60
2022-12-27T04:50:24.980Z,0.50
2022-12-27T04:51:25.013Z,0.50
2022-12-27T04:52:24.965Z,0.60
2022-12-27T04:53:24.942Z,1.50
2022-12-27T04:54:24.925Z,1.10
2022-12-27T04:55:24.928Z,1.10
2022-12-27T04:56:24.902Z,1.10
2022-12-27T04:57:24.951Z,1.00
2022-12-27T04:58:24.891Z,1.20
2022-12-27T04:59:24.886Z,0.90
2022-12-27T05:00:24.862Z,1.00
2022-12-27T05:01:25.015Z,0.80
2022-12-27T05:02:25.040Z,0.90
2022-12-27T05:03:24.923Z,0.70
2022-12-27T05:04:24.926Z,0.80
2022-12-27T05:05:24.817Z,0.80
2022-12-27T05:06:24.802Z,0.80
2022-12-27T05:07:24.803Z,0.90
2022-12-27T05:08:24.781Z,0.80
2022-12-27T05:09:24.806Z,0.70
2022-12-27T05:10:24.785Z,0.90
2022-12-27T05:11:24.768Z,0.80
2022-12-27T05:12:24.740Z,1.30
2022-12-27T05:13:24.726Z,1.00
2022-12-27T05:14:24.743Z,0.80
2022-12-27T05:15:24.755Z,0.70
2022-12-27T05:16:24.771Z,0.80
2022-12-27T05:17:24.786Z,0.80
2022-12-27T05:18:24.695Z,0.90
2022-12-27T05:19:24.656Z,0.70
2022-12-27T05:20:24.651Z,0.80
2022-12-27T05:21:24.688Z,0.80
2022-12-27T05:22:24.635Z,1.10
2022-12-27T05:23:24.731Z,0.80
2022-12-27T05:24:24.609Z,0.80
2022-12-27T05:25:24.593Z,0.70
2022-12-27T05:26:24.596Z,0.70
2022-12-27T05:27:24.617Z,0.70
2022-12-27T05:28:24.566Z,0.60
2022-12-27T05:29:24.564Z,0.60
2022-12-27T05:30:24.548Z,0.70
2022-12-27T05:31:24.582Z,0.80
2022-12-27T05:32:24.525Z,0.70
2022-12-27T05:33:24.574Z,0.80
2022-12-27T05:34:24.514Z,0.80
2022-12-27T05:35:24.504Z,0.90
2022-12-27T05:36:24.479Z,0.90
2022-12-27T05:37:24.472Z,0.80
2022-12-27T05:38:24.460Z,1.00
2022-12-27T05:39:24.524Z,156.20
2022-12-27T05:40:24.451Z,172.00
2022-12-27T05:41:24.435Z,98.80
2022-12-27T05:42:24.436Z,128.30
2022-12-27T05:43:24.407Z,239.40
2022-12-27T05:44:24.409Z,162.60
2022-12-27T05:45:24.424Z,1.30
2022-12-27T05:46:24.448Z,1.20
2022-12-27T05:47:24.379Z,1.20
2022-12-27T05:48:24.352Z,0.90
2022-12-27T05:49:24.339Z,1.30
2022-12-27T05:50:24.339Z,1.30
2022-12-27T05:51:24.356Z,1.10
2022-12-27T05:52:24.308Z,1.20
2022-12-27T05:53:24.292Z,1.20
2022-12-27T05:54:24.289Z,1.40
2022-12-27T05:55:24.302Z,1.20
2022-12-27T05:56:24.263Z,0.90
2022-12-27T05:57:24.311Z,0.90
2022-12-27T05:58:24.241Z,0.90
2022-12-27T05:59:24.231Z,0.80
2022-12-27T06:00:24.225Z,0.80
2022-12-27T06:01:24.242Z,1.00
2022-12-27T06:02:24.437Z,0.90
2022-12-27T06:03:24.342Z,0.90
2022-12-27T06:04:24.180Z,0.80
2022-12-27T06:05:24.175Z,0.90
2022-12-27T06:06:24.159Z,0.80
2022-12-27T06:07:24.144Z,0.80
2022-12-27T06:08:24.139Z,0.80
2022-12-27T06:09:24.178Z,0.80
2022-12-27T06:10:24.118Z,0.80
2022-12-27T06:11:24.121Z,0.90
2022-12-27T06:12:24.096Z,0.80
2022-12-27T06:13:24.087Z,1.00
2022-12-27T06:14:24.088Z,0.80
2022-12-27T06:15:24.112Z,0.90
2022-12-27T06:16:24.107Z,1.00
2022-12-27T06:17:24.036Z,1.30
2022-12-27T06:18:24.030Z,34.80
2022-12-27T06:19:24.029Z,74.00
2022-12-27T06:20:24.008Z,218.50
2022-12-27T06:21:24.045Z,57.50
2022-12-27T06:22:23.986Z,215.40
2022-12-27T06:23:24.085Z,110.50
2022-12-27T06:24:23.968Z,266.50
2022-12-27T06:25:23.963Z,320.20
2022-12-27T06:26:23.952Z,418.60
2022-12-27T06:27:23.983Z,306.40
2022-12-27T06:28:23.940Z,356.10
2022-12-27T06:29:23.925Z,226.70
2022-12-27T06:30:23.910Z,82.40
2022-12-27T06:31:24.013Z,150.80
2022-12-27T06:32:23.884Z,114.10
2022-12-27T06:33:23.925Z,70.70
2022-12-27T06:34:23.861Z,110.10
2022-12-27T06:35:23.845Z,63.80
2022-12-27T06:36:23.839Z,6.60
2022-12-27T06:37:23.826Z,13.90
2022-12-27T06:38:23.817Z,6.10
2022-12-27T06:39:23.871Z,2.40
2022-12-27T06:40:23.822Z,2.20
2022-12-27T06:41:23.787Z,1.70
2022-12-27T06:42:23.779Z,2.00
2022-12-27T06:43:23.780Z,1.60
2022-12-27T06:44:23.767Z,4.10
2022-12-27T06:45:23.967Z,2.60
2022-12-27T06:46:23.771Z,2.50
2022-12-27T06:47:23.727Z,2.60
2022-12-27T06:48:23.721Z,2.70
2022-12-27T06:49:23.696Z,2.40
2022-12-27T06:50:23.689Z,2.40
2022-12-27T06:51:23.722Z,44.30
2022-12-27T06:52:23.685Z,2.50
2022-12-27T06:53:23.658Z,82.30
2022-12-27T06:54:23.663Z,20.80
2022-12-27T06:55:23.636Z,30.40
2022-12-27T06:56:23.638Z,58.40
2022-12-27T06:57:23.670Z,45.50
2022-12-27T06:58:23.606Z,48.90
2022-12-27T06:59:23.621Z,21.50
2022-12-27T07:00:23.596Z,47.00
2022-12-27T07:01:23.673Z,8.60
2022-12-27T07:02:23.687Z,5.30
2022-12-27T07:03:23.624Z,6.00
2022-12-27T07:04:23.541Z,4.60
2022-12-27T07:05:23.527Z,37.30
2022-12-27T07:06:23.544Z,33.70
2022-12-27T07:07:23.507Z,6.50
2022-12-27T07:08:23.509Z,5.70
2022-12-27T07:09:23.518Z,3.60
2022-12-27T07:10:23.477Z,7.50
2022-12-27T07:11:23.477Z,4.10
2022-12-27T07:12:23.457Z,4.40
2022-12-27T07:13:23.451Z,4.40
2022-12-27T07:14:23.446Z,4.20
2022-12-27T07:15:23.480Z,3.90
2022-12-27T07:16:23.452Z,9.90
2022-12-27T07:17:23.410Z,8.90
2022-12-27T07:18:23.389Z,3.80
2022-12-27T07:19:23.382Z,6.20
2022-12-27T07:20:23.369Z,6.20
2022-12-27T07:21:23.419Z,8.40
2022-12-27T07:22:23.370Z,14.00
2022-12-27T07:23:23.356Z,9.20
2022-12-27T07:24:23.327Z,7.30
2022-12-27T07:25:23.331Z,7.50
2022-12-27T07:26:23.349Z,7.10
2022-12-27T07:27:23.359Z,7.00
2022-12-27T07:28:23.294Z,5.30
2022-12-27T07:29:23.285Z,5.40
2022-12-27T07:30:23.260Z,6.50
2022-12-27T07:31:23.348Z,5.80
2022-12-27T07:32:23.256Z,7.20
2022-12-27T07:33:23.284Z,13.40
2022-12-27T07:34:23.231Z,13.00
2022-12-27T07:35:23.221Z,10.70
2022-12-27T07:36:23.200Z,6.30
2022-12-27T07:37:23.192Z,5.20
2022-12-27T07:38:23.179Z,5.90
2022-12-27T07:39:23.227Z,4.30
2022-12-27T07:40:23.168Z,3.90
2022-12-27T07:41:23.146Z,3.60
2022-12-27T07:42:23.136Z,4.50
2022-12-27T07:43:23.127Z,4.60
2022-12-27T07:44:23.236Z,19.50
2022-12-27T07:45:23.130Z,16.80
2022-12-27T07:46:23.121Z,2.90
2022-12-27T07:47:23.100Z,2.40
2022-12-27T07:48:23.076Z,2.80
2022-12-27T07:49:23.063Z,2.20
2022-12-27T07:50:23.063Z,2.60
2022-12-27T07:51:23.079Z,20.10
2022-12-27T07:52:23.027Z,19.10
2022-12-27T07:53:23.021Z,7.10
2022-12-27T07:54:23.118Z,2.90
2022-12-27T07:55:23.004Z,3.10
2022-12-27T07:56:26.123Z,4.40
2022-12-27T07:57:23.020Z,3.00
2022-12-27T07:58:22.969Z,2.20
2022-12-27T07:59:22.958Z,2.30
2022-12-27T08:00:22.958Z,1.90
2022-12-27T08:01:23.078Z,1.90
2022-12-27T08:02:23.113Z,1.40
2022-12-27T08:03:23.004Z,1.90
2022-12-27T08:04:22.903Z,1.50
2022-12-27T08:05:27.695Z,1.30
2022-12-27T08:06:23.897Z,1.10
2022-12-27T08:07:22.874Z,1.10
2022-12-27T08:08:22.865Z,1.20
2022-12-27T08:09:22.912Z,1.10
2022-12-27T08:10:22.841Z,1.00
2022-12-27T08:11:22.827Z,1.00
2022-12-27T08:12:22.836Z,1.20
2022-12-27T08:13:22.820Z,1.00
2022-12-27T08:14:22.797Z,1.10
2022-12-27T08:15:22.795Z,1.00
2022-12-27T08:16:22.884Z,69.60
2022-12-27T08:17:22.771Z,156.10
2022-12-27T08:18:22.784Z,242.30
2022-12-27T08:19:22.782Z,85.70
2022-12-27T08:20:22.731Z,225.50
2022-12-27T08:21:22.737Z,213.10
2022-12-27T08:22:22.710Z,178.40
2022-12-27T08:23:22.716Z,120.20
2022-12-27T08:24:22.689Z,134.40
2022-12-27T08:25:22.684Z,170.20
2022-12-27T08:26:22.688Z,96.10
2022-12-27T08:27:22.702Z,85.60
2022-12-27T08:28:22.661Z,120.70
2022-12-27T08:29:22.637Z,64.90
2022-12-27T08:30:22.629Z,89.80
2022-12-27T08:31:22.661Z,172.80
2022-12-27T08:32:22.601Z,196.90
2022-12-27T08:33:22.618Z,284.30
2022-12-27T08:34:22.593Z,104.50
2022-12-27T08:35:51.709Z,45.20
2022-12-27T08:36:54.770Z,30.60
2022-12-27T08:37:23.557Z,88.90
2022-12-27T08:38:22.583Z,17.50
2022-12-27T08:39:22.560Z,7.60
2022-12-27T08:40:22.529Z,6.80
2022-12-27T08:41:22.506Z,5.30
2022-12-27T08:42:22.496Z,5.50
2022-12-27T08:43:22.490Z,5.30
2022-12-27T08:44:22.487Z,4.60
2022-12-27T08:45:22.486Z,4.10
2022-12-27T08:46:22.768Z,4.10
2022-12-27T08:47:22.459Z,5.20
2022-12-27T08:48:22.484Z,4.70
2022-12-27T08:49:22.438Z,4.80
2022-12-27T08:50:22.411Z,4.80
2022-12-27T08:51:32.645Z,4.40
2022-12-27T08:52:23.402Z,4.70
2022-12-27T08:53:22.403Z,3.60
2022-12-27T08:54:22.370Z,113.20
2022-12-27T08:55:22.364Z,261.10
2022-12-27T08:56:22.348Z,266.20
2022-12-27T08:57:22.448Z,232.60
2022-12-27T08:58:22.324Z,236.10
2022-12-27T08:59:22.327Z,440.90
2022-12-27T09:00:22.304Z,111.60
2022-12-27T09:01:22.430Z,149.30
2022-12-27T09:02:22.365Z,202.50
2022-12-27T09:03:22.393Z,238.00
2022-12-27T09:04:22.264Z,183.10
2022-12-27T09:05:22.272Z,135.80
2022-12-27T09:06:22.240Z,106.50
2022-12-27T09:07:22.262Z,303.90
2022-12-27T09:08:22.220Z,323.00
2022-12-27T09:09:22.221Z,130.60
2022-12-27T09:10:22.196Z,91.40
2022-12-27T09:11:22.238Z,112.00
2022-12-27T09:12:22.177Z,75.60
2022-12-27T09:13:22.184Z,64.70
2022-12-27T09:14:22.162Z,50.90
2022-12-27T09:15:22.147Z,8.40
2022-12-27T09:16:22.174Z,2.30
2022-12-27T09:17:22.132Z,2.50
2022-12-27T09:18:22.138Z,2.30
2022-12-27T09:19:22.109Z,2.30
2022-12-27T09:20:22.091Z,2.00
2022-12-27T09:21:22.085Z,2.20
2022-12-27T09:22:22.067Z,1.60
2022-12-27T09:23:22.085Z,2.10
2022-12-27T09:24:22.065Z,2.30
2022-12-27T09:25:22.169Z,3.50
2022-12-27T09:26:22.032Z,3.60
2022-12-27T09:27:22.031Z,4.10
2022-12-27T09:28:22.002Z,221.00
2022-12-27T09:29:22.015Z,189.00
2022-12-27T09:30:21.983Z,851.00
2022-12-27T09:31:22.105Z,520.60
2022-12-27T09:32:21.987Z,514.20
2022-12-27T09:33:21.954Z,855.30
2022-12-27T09:34:21.943Z,638.70
2022-12-27T09:35:21.930Z,483.00
2022-12-27T09:36:21.916Z,458.80
2022-12-27T09:37:21.920Z,286.90
2022-12-27T09:38:21.909Z,119.00
2022-12-27T09:39:21.910Z,236.50
2022-12-27T09:40:22.027Z,297.70
2022-12-27T09:42:11.702Z,178.30
2022-12-27T09:43:27.514Z,204.30
2022-12-27T09:44:22.866Z,207.80
2022-12-27T09:45:21.824Z,286.60
2022-12-27T09:46:21.876Z,324.60
2022-12-27T09:47:21.804Z,305.00
2022-12-27T09:48:22.160Z,311.70
2022-12-27T09:49:21.781Z,320.70
2022-12-27T09:50:21.835Z,323.50
2022-12-27T09:51:21.775Z,386.10
2022-12-27T09:52:21.748Z,399.70
2022-12-27T09:53:21.738Z,307.10
2022-12-27T09:54:21.739Z,323.00
2022-12-27T09:55:21.740Z,337.80
2022-12-27T09:56:21.709Z,348.40
2022-12-27T09:57:21.722Z,296.50
2022-12-27T09:58:21.689Z,306.70
2022-12-27T09:59:21.675Z,289.70
2022-12-27T10:00:34.627Z,319.10
2022-12-27T10:01:22.857Z,384.30
2022-12-27T10:02:21.820Z,532.50
2022-12-27T10:03:21.644Z,269.60
2022-12-27T10:04:21.696Z,301.90
2022-12-27T10:05:22.808Z,300.60
2022-12-27T10:06:21.604Z,283.20
2022-12-27T10:07:21.589Z,342.80
2022-12-27T10:08:21.577Z,291.10
2022-12-27T10:09:21.578Z,292.70
2022-12-27T10:10:21.588Z,256.20
2022-12-27T10:11:21.574Z,266.80
2022-12-27T10:12:24.359Z,321.50
2022-12-27T10:13:22.537Z,328.10
2022-12-27T10:14:21.519Z,315.70
2022-12-27T10:15:21.506Z,320.90
2022-12-27T10:16:21.549Z,316.90
2022-12-27T10:17:21.491Z,210.20
2022-12-27T10:18:21.482Z,237.60
2022-12-27T10:19:21.462Z,243.40
2022-12-27T10:20:21.457Z,226.40
2022-12-27T10:21:21.442Z,159.80
2022-12-27T10:22:21.437Z,148.80
2022-12-27T10:23:21.423Z,166.60
2022-12-27T10:24:21.407Z,212.70
2022-12-27T10:25:21.403Z,230.90
2022-12-27T10:26:21.425Z,66.10
2022-12-27T10:27:21.433Z,240.10
2022-12-27T10:28:21.365Z,101.70
2022-12-27T10:29:21.376Z,72.40
2022-12-27T10:30:21.351Z,251.20
2022-12-27T10:31:21.339Z,139.00
2022-12-27T10:32:21.345Z,116.00
2022-12-27T10:33:21.312Z,51.70
2022-12-27T10:34:21.299Z,28.40
2022-12-27T10:35:21.308Z,112.20
2022-12-27T10:36:21.285Z,297.50
2022-12-27T10:37:21.276Z,301.90
2022-12-27T10:38:21.314Z,355.50
2022-12-27T10:39:21.251Z,350.60
2022-12-27T10:40:21.238Z,341.10
2022-12-27T10:41:21.283Z,379.10
2022-12-27T10:42:21.214Z,192.30
2022-12-27T10:43:21.236Z,294.20
2022-12-27T10:44:21.196Z,337.50
2022-12-27T10:45:21.188Z,392.60
2022-12-27T10:46:21.273Z,321.90
2022-12-27T10:47:21.176Z,369.80
2022-12-27T10:48:21.148Z,333.00
2022-12-27T10:49:22.061Z,360.30
2022-12-27T10:50:21.137Z,293.50
2022-12-27T10:51:21.131Z,230.80
2022-12-27T10:52:21.179Z,374.50
2022-12-27T10:53:21.103Z,359.50
2022-12-27T10:54:21.090Z,377.30
2022-12-27T10:55:21.091Z,348.80
2022-12-27T10:56:21.078Z,377.10
2022-12-27T10:57:21.056Z,356.40
2022-12-27T10:58:21.099Z,340.10
2022-12-27T10:59:21.067Z,348.10
2022-12-27T11:00:21.025Z,312.10
2022-12-27T11:01:21.102Z,370.80
2022-12-27T11:02:21.099Z,245.10
2022-12-27T11:03:20.997Z,376.80
2022-12-27T11:04:21.875Z,340.70
2022-12-27T11:05:20.973Z,270.20
2022-12-27T11:06:20.958Z,378.70
2022-12-27T11:07:20.962Z,361.40
2022-12-27T11:08:20.949Z,354.70
2022-12-27T11:09:20.928Z,372.90
2022-12-27T11:10:20.962Z,242.90
2022-12-27T11:11:20.928Z,329.20
2022-12-27T11:12:20.899Z,314.60
2022-12-27T11:13:20.897Z,417.40
2022-12-27T11:14:20.879Z,423.80
2022-12-27T11:15:20.884Z,361.60
2022-12-27T11:16:20.941Z,306.80
2022-12-27T11:17:20.848Z,348.10
2022-12-27T11:18:20.841Z,326.80
2022-12-27T11:19:20.823Z,342.50
2022-12-27T11:20:20.810Z,362.80
2022-12-27T11:21:27.474Z,389.80
2022-12-27T11:22:21.799Z,314.70
2022-12-27T11:23:20.803Z,400.80
2022-12-27T11:24:20.777Z,400.60
2022-12-27T11:25:20.777Z,284.40
2022-12-27T11:26:20.748Z,219.40
2022-12-27T11:27:20.770Z,230.20
2022-12-27T11:28:20.736Z,129.30
2022-12-27T11:29:20.714Z,231.60
2022-12-27T11:30:20.708Z,315.30
2022-12-27T11:31:20.756Z,389.80
2022-12-27T11:32:20.683Z,168.60
2022-12-27T11:33:24.690Z,315.00
2022-12-27T11:34:20.677Z,194.40
2022-12-27T11:35:20.656Z,171.00
2022-12-27T11:36:20.643Z,270.20
2022-12-27T11:37:20.628Z,197.80
2022-12-27T11:38:20.620Z,14.70
2022-12-27T11:39:20.741Z,45.30
2022-12-27T11:40:20.599Z,14.60
2022-12-27T11:41:26.090Z,5.90
2022-12-27T11:42:21.585Z,38.70
2022-12-27T11:43:20.563Z,117.30
2022-12-27T11:44:20.597Z,195.60
2022-12-27T11:45:20.614Z,143.00
2022-12-27T11:46:20.639Z,124.80
2022-12-27T11:47:20.779Z,182.50
2022-12-27T11:48:20.542Z,301.70
2022-12-27T11:49:20.538Z,10.00
2022-12-27T11:50:20.494Z,19.00
2022-12-27T11:51:20.518Z,2.20
2022-12-27T11:52:20.470Z,1.70
2022-12-27T11:53:20.460Z,9.30
2022-12-27T11:54:20.448Z,93.70
2022-12-27T11:55:20.452Z,7.20
2022-12-27T11:56:20.436Z,5.00
2022-12-27T11:57:20.479Z,2.30
2022-12-27T11:58:20.408Z,2.00
2022-12-27T11:59:20.392Z,3.10
2022-12-27T12:00:20.399Z,12.70
2022-12-27T12:01:20.422Z,2.60
2022-12-27T12:02:20.427Z,2.20
2022-12-27T12:03:20.425Z,2.50
2022-12-27T12:04:20.349Z,43.30
2022-12-27T12:05:20.338Z,3.80
2022-12-27T12:06:20.332Z,359.70
2022-12-27T12:07:20.310Z,62.50
2022-12-27T12:08:20.347Z,100.70
2022-12-27T12:09:20.358Z,31.20
2022-12-27T12:10:20.280Z,72.00
2022-12-27T12:11:20.268Z,124.00
2022-12-27T12:12:20.282Z,85.20
2022-12-27T12:13:20.245Z,26.00
2022-12-27T12:14:20.237Z,147.20
2022-12-27T12:15:20.265Z,251.50
2022-12-27T12:16:20.264Z,197.50
2022-12-27T12:17:20.205Z,140.40
2022-12-27T12:18:20.207Z,230.70
2022-12-27T12:19:20.201Z,311.10
2022-12-27T12:20:20.172Z,321.50
2022-12-27T12:21:20.208Z,120.20
2022-12-27T12:22:20.154Z,231.70
2022-12-27T12:23:20.153Z,295.10
2022-12-27T12:24:20.136Z,270.00
2022-12-27T12:25:20.115Z,166.10
2022-12-27T12:26:20.107Z,233.10
2022-12-27T12:27:20.137Z,186.30
2022-12-27T12:28:55.549Z,42.70
2022-12-27T12:29:21.183Z,86.50
2022-12-27T12:30:23.848Z,173.50
2022-12-27T12:31:21.109Z,55.80
2022-12-27T12:32:20.053Z,278.00
2022-12-27T12:33:20.067Z,306.70
2022-12-27T12:34:20.027Z,122.30
2022-12-27T12:35:20.044Z,324.00
2022-12-27T12:36:20.009Z,341.20
2022-12-27T12:37:19.985Z,343.70
2022-12-27T12:38:19.982Z,74.80
2022-12-27T12:39:20.006Z,58.80
2022-12-27T12:40:19.961Z,135.10
2022-12-27T12:41:19.969Z,257.70
2022-12-27T12:42:19.940Z,102.60
2022-12-27T12:43:19.933Z,145.40
2022-12-27T12:44:19.916Z,5.80
2022-12-27T12:45:19.995Z,182.10
2022-12-27T12:46:19.968Z,74.90
2022-12-27T12:47:19.883Z,164.70
2022-12-27T12:48:19.888Z,210.50
2022-12-27T12:49:19.864Z,347.50
2022-12-27T12:50:19.887Z,285.10
2022-12-27T12:51:19.926Z,180.40
2022-12-27T12:52:19.833Z,123.30
2022-12-27T12:53:19.824Z,163.20
2022-12-27T12:54:19.816Z,114.60
2022-12-27T12:55:19.798Z,93.90
2022-12-27T12:56:19.801Z,130.40
2022-12-27T12:57:19.809Z,133.70
2022-12-27T12:58:19.770Z,142.80
2022-12-27T12:59:19.755Z,41.60
2022-12-27T13:00:19.759Z,124.70
2022-12-27T13:01:19.847Z,16.10
2022-12-27T13:02:19.923Z,28.30